Time;durP1;ratioP1;P1;durP2;ratioP2;P2;SDS_P1;SDS_P2;PMS_P1;PMS_P2;Temp;Humidity;BMP_temperature;BMP_pressure;BME280_temperature;BME280_humidity;BME280_pressure;Samples;Min_cycle;Max_cycle;Signal;HPM_P1;HPM_P2
2022/11/29 00:01:25;;;;;;;9.32;7.78;;;;;;;17.92;54.97;101149.69;4920707;29;20392;-77
2022/11/29 00:03:53;;;;;;;10.50;7.70;;;;;;;17.91;55.09;101142.63;4920412;29;20399;-78
2022/11/29 00:06:26;;;;;;;10.15;8.77;;;;;;;17.90;54.92;101144.44;4920062;29;20507;-78
2022/11/29 00:08:56;;;;;;;10.05;8.93;;;;;;;17.90;54.78;101141.75;4920620;29;20059;-79
2022/11/29 00:14:17;;;;;;;9.38;8.25;;;;;;;17.89;54.82;101139.22;4902901;29;20052;-79
2022/11/29 00:16:49;;;;;;;10.15;9.00;;;;;;;17.88;54.91;101142.84;4920737;29;20052;-78
2022/11/29 00:19:17;;;;;;;10.15;8.88;;;;;;;17.87;54.88;101128.63;4920488;29;20067;-78
2022/11/29 00:21:44;;;;;;;11.40;8.90;;;;;;;17.88;54.85;101134.81;4920352;29;20048;-80
2022/11/29 00:24:12;;;;;;;10.15;8.50;;;;;;;17.86;54.82;101137.59;4919679;29;20047;-77
2022/11/29 00:26:40;;;;;;;13.15;9.40;;;;;;;17.87;54.78;101130.44;4919743;29;20055;-80
2022/11/29 00:29:10;;;;;;;10.25;8.70;;;;;;;17.85;54.67;101127.88;4920462;29;20052;-79
2022/11/29 00:31:38;;;;;;;11.75;9.52;;;;;;;17.85;54.63;101133.22;4919897;29;20048;-80
2022/11/29 00:34:06;;;;;;;11.13;8.45;;;;;;;17.86;54.69;101126.03;4902752;29;20398;-80
2022/11/29 00:36:34;;;;;;;11.15;9.02;;;;;;;17.84;54.62;101123.47;4920300;29;20052;-79
2022/11/29 00:39:03;;;;;;;9.68;8.60;;;;;;;17.85;54.58;101118.97;4919529;29;20063;-79
2022/11/29 00:41:31;;;;;;;11.23;8.82;;;;;;;17.84;54.65;101118.13;4920208;29;20048;-79
2022/11/29 00:43:59;;;;;;;11.23;9.27;;;;;;;17.83;54.65;101115.56;4919233;29;20047;-79
2022/11/29 00:46:26;;;;;;;9.65;8.35;;;;;;;17.83;54.64;101120.94;4919664;29;20051;-79
2022/11/29 00:48:54;;;;;;;10.35;8.98;;;;;;;17.83;54.64;101121.78;4919243;29;20044;-78
2022/11/29 00:51:21;;;;;;;10.27;9.10;;;;;;;17.82;54.75;101120.03;4919812;29;20048;-79
2022/11/29 00:53:48;;;;;;;12.45;9.65;;;;;;;17.82;54.74;101119.19;4919182;29;20052;-79
2022/11/29 00:56:16;;;;;;;10.10;9.00;;;;;;;17.82;54.69;101124.56;4919198;29;20074;-79
2022/11/29 00:58:43;;;;;;;11.65;9.68;;;;;;;17.81;54.77;101123.72;4919946;29;20044;-79
2022/11/29 01:01:10;;;;;;;11.85;9.38;;;;;;;17.81;54.53;101121.03;4919655;29;20052;-79
2022/11/29 01:03:38;;;;;;;11.00;9.40;;;;;;;17.81;54.63;101126.38;4918983;29;20052;-79
2022/11/29 01:06:14;;;;;;;10.90;9.50;;;;;;;17.79;54.52;101123.84;4919296;29;20392;-78
2022/11/29 01:08:41;;;;;;;11.68;9.02;;;;;;;17.80;54.52;101124.69;4919782;29;20063;-79
2022/11/29 01:11:15;;;;;;;11.52;8.90;;;;;;;17.79;54.62;101125.66;4918434;29;20048;-78
2022/11/29 01:13:42;;;;;;;10.55;9.38;;;;;;;17.81;54.71;101133.56;4919412;29;20052;-79
2022/11/29 01:16:10;;;;;;;13.00;8.50;;;;;;;17.79;54.61;101133.69;4919577;29;20044;-79
2022/11/29 01:18:38;;;;;;;12.40;8.90;;;;;;;17.78;54.69;101126.59;4917720;29;20079;-79
2022/11/29 01:21:08;;;;;;;10.55;8.90;;;;;;;17.78;54.45;101130.16;4919456;29;20048;-79
2022/11/29 01:23:36;;;;;;;9.20;8.18;;;;;;;17.77;54.57;101128.44;4918536;29;20059;-78
2022/11/29 01:26:16;;;;;;;13.55;9.85;;;;;;;17.77;54.61;101117.72;4918581;29;20052;-79
2022/11/29 01:28:47;;;;;;;11.10;8.85;;;;;;;17.77;54.52;101117.72;4919177;29;20392;-79
2022/11/29 01:31:17;;;;;;;11.38;9.60;;;;;;;17.77;54.70;101123.06;4919131;29;20048;-80
2022/11/29 01:33:45;;;;;;;10.48;8.57;;;;;;;17.76;54.46;101121.38;4918394;29;20056;-79
2022/11/29 01:36:13;;;;;;;9.68;8.45;;;;;;;17.76;54.46;101118.69;4918710;29;20050;-79
2022/11/29 01:38:43;;;;;;;11.95;10.07;;;;;;;17.76;54.22;101123.19;4919154;29;20401;-79
2022/11/29 01:41:20;;;;;;;11.35;9.70;;;;;;;17.75;54.53;101117.00;4917001;29;20059;-79
2022/11/29 01:44:10;;;;;;;12.82;9.63;;;;;;;17.76;54.38;101116.03;4918793;29;20481;-79
2022/11/29 01:46:45;;;;;;;10.73;9.05;;;;;;;17.75;54.50;101111.66;4883222;29;20060;-79
2022/11/29 01:49:31;;;;;;;10.45;9.10;;;;;;;17.74;54.42;101115.28;4918769;29;20056;-79
2022/11/29 01:52:04;;;;;;;9.73;8.73;;;;;;;17.73;54.49;101104.66;4916293;29;20063;-79
2022/11/29 01:54:35;;;;;;;10.52;8.23;;;;;;;17.74;54.42;101111.69;4901942;29;20051;-80
2022/11/29 01:57:06;;;;;;;11.32;9.27;;;;;;;17.73;54.45;101110.84;4918392;29;20059;-79
2022/11/29 01:59:37;;;;;;;12.88;9.65;;;;;;;17.72;54.46;101111.81;4918361;29;20048;-79
2022/11/29 02:02:11;;;;;;;10.55;8.93;;;;;;;17.73;54.38;101110.84;4918164;29;20484;-79
2022/11/29 02:04:42;;;;;;;11.10;9.07;;;;;;;17.71;54.66;101104.78;4918712;29;20361;-79
2022/11/29 02:07:10;;;;;;;10.18;8.82;;;;;;;17.72;54.28;101103.78;4918573;29;20048;-79
2022/11/29 02:09:37;;;;;;;12.07;8.60;;;;;;;17.71;54.43;101098.56;4918137;29;20044;-79
2022/11/29 02:12:52;;;;;;;10.75;8.95;;;;;;;17.70;54.72;101097.72;4900064;29;20052;-79
2022/11/29 02:15:40;;;;;;;10.80;9.68;;;;;;;17.71;54.41;101104.78;4876253;29;20480;-78
2022/11/29 02:18:26;;;;;;;10.00;9.00;;;;;;;17.70;54.44;101105.75;4918320;29;20048;-79
2022/11/29 02:21:05;;;;;;;9.80;8.80;;;;;;;17.70;54.53;101096.84;4918245;29;20055;-78
2022/11/29 02:24:11;;;;;;;11.90;9.75;;;;;;;17.69;54.36;101095.97;4917367;29;20056;-78
2022/11/29 02:27:10;;;;;;;11.10;9.57;;;;;;;17.70;54.41;101102.19;4841015;29;20168;-79
2022/11/29 02:29:40;;;;;;;9.75;8.80;;;;;;;17.70;54.39;101107.53;4841512;29;20054;-79
2022/11/29 02:32:44;;;;;;;11.43;9.23;;;;;;;17.68;54.37;101099.63;4840930;29;20060;-79
2022/11/29 02:35:30;;;;;;;;;;;;;;;17.69;54.50;101105.84;4841971;29;20062;-79
2022/11/29 02:38:36;;;;;;;9.75;8.73;;;;;;;17.68;54.52;101096.97;4841393;29;19924;-79
2022/11/29 02:41:14;;;;;;;10.18;9.10;;;;;;;17.68;54.51;101102.31;4841464;29;20062;-79
2022/11/29 02:43:56;;;;;;;11.75;10.07;;;;;;;17.67;54.50;101100.63;4828659;29;20064;-80
2022/11/29 02:46:36;;;;;;;9.95;8.85;;;;;;;17.68;54.41;101098.78;4823287;29;20061;-79
2022/11/29 02:49:05;;;;;;;11.20;9.85;;;;;;;17.67;54.49;101097.09;4823570;29;20066;-79
2022/11/29 02:51:59;;;;;;;11.50;9.85;;;;;;;17.66;54.35;101104.28;4822879;29;20061;-79
2022/11/29 02:54:47;;;;;;;10.50;9.40;;;;;;;17.66;54.32;101092.69;4823046;29;20066;-79
2022/11/29 02:57:32;;;;;;;11.50;9.55;;;;;;;17.67;54.35;101099.75;4823526;29;20410;-79
2022/11/29 03:00:18;;;;;;;12.43;9.75;;;;;;;17.67;54.42;101110.47;4838324;29;20410;-80
2022/11/29 03:03:07;;;;;;;11.15;9.93;;;;;;;17.66;54.32;101100.72;4899098;29;20060;-80
2022/11/29 03:05:43;;;;;;;10.38;9.38;;;;;;;17.66;54.44;101104.28;4898647;29;20040;-79
2022/11/29 03:08:36;;;;;;;11.27;10.07;;;;;;;17.65;54.38;101099.00;4899099;29;20059;-79
2022/11/29 03:11:09;;;;;;;11.15;9.98;;;;;;;17.65;54.39;101094.50;4898852;29;20053;-78
2022/11/29 03:14:03;;;;;;;10.75;9.65;;;;;;;17.64;54.45;101098.16;4898180;29;20060;-79
2022/11/29 03:16:37;;;;;;;;;;;;;;;17.64;54.42;101095.47;4898682;29;20055;-78
2022/11/29 03:19:39;;;;;;;11.27;9.32;;;;;;;17.65;54.44;101091.81;4898260;29;20399;-78
2022/11/29 03:22:31;;;;;;;9.82;8.82;;;;;;;17.63;54.47;101093.78;4898953;29;20052;-78
2022/11/29 03:25:27;;;;;;;11.48;9.73;;;;;;;17.63;54.48;101095.59;4898659;29;20060;-79
2022/11/29 03:28:16;;;;;;;12.65;9.55;;;;;;;17.63;54.42;101092.94;4825339;29;20054;-79
2022/11/29 03:30:52;;;;;;;11.60;10.35;;;;;;;17.63;54.54;101096.47;4841090;29;20058;-78
2022/11/29 03:33:51;;;;;;;12.27;10.95;;;;;;;17.62;54.39;101089.38;4841013;29;20065;-79
2022/11/29 03:37:02;;;;;;;12.98;9.43;;;;;;;17.63;54.40;101090.25;4844559;29;20545;-79
2022/11/29 03:39:44;;;;;;;10.25;9.25;;;;;;;17.63;54.48;101091.09;4772043;30;20064;-79
2022/11/29 03:42:53;;;;;;;11.43;10.25;;;;;;;17.62;54.46;101092.06;4772136;30;20064;-79
2022/11/29 03:45:27;;;;;;;10.63;9.48;;;;;;;17.61;54.43;101090.34;4753333;30;20056;-79
2022/11/29 03:48:28;;;;;;;11.45;10.25;;;;;;;17.62;54.51;101091.19;4754031;30;20064;-79
2022/11/29 03:51:00;;;;;;;11.30;10.10;;;;;;;17.60;54.41;101085.97;4752644;30;20076;-79
2022/11/29 03:53:35;;;;;;;13.63;10.63;;;;;;;17.61;54.52;101084.16;4764911;30;20078;-78
2022/11/29 03:56:29;;;;;;;11.43;9.55;;;;;;;17.61;54.41;101079.63;4772086;30;20312;-78
2022/11/29 03:59:19;;;;;;;12.73;11.02;;;;;;;17.60;54.44;101077.94;4771301;30;20067;-78
2022/11/29 04:02:20;;;;;;;11.40;10.20;;;;;;;17.61;54.51;101081.47;4768746;30;20067;-78
2022/11/29 04:05:17;;;;;;;12.07;10.32;;;;;;;17.59;54.49;101078.91;4777997;30;20136;-79
2022/11/29 04:07:45;;;;;;;11.55;10.35;;;;;;;17.60;54.50;101075.25;4789893;30;20059;-78
2022/11/29 04:10:50;;;;;;;12.50;10.77;;;;;;;17.59;54.40;101073.56;4789706;30;20075;-77
2022/11/29 04:13:45;;;;;;;11.10;10.00;;;;;;;17.60;54.38;101079.75;4789740;30;20051;-78
2022/11/29 04:16:42;;;;;;;12.10;10.05;;;;;;;17.58;54.31;101077.19;4848620;29;20064;-76
2022/11/29 04:19:18;;;;;;;11.60;10.10;;;;;;;17.59;54.43;101084.28;4901813;29;20206;-77
2022/11/29 04:22:11;;;;;;;11.82;10.55;;;;;;;17.58;54.30;101073.66;4901749;29;20053;-77
2022/11/29 04:25:00;;;;;;;12.18;10.80;;;;;;;17.58;54.38;101079.00;4903232;29;20060;-75
2022/11/29 04:27:34;;;;;;;10.63;9.63;;;;;;;17.57;54.41;101077.31;4919665;29;20044;-80
2022/11/29 04:30:22;;;;;;;13.02;10.32;;;;;;;17.56;54.59;101076.47;4920503;29;20059;-80
2022/11/29 04:33:24;;;;;;;11.38;10.13;;;;;;;17.56;54.51;101071.09;4919619;29;20048;-79
2022/11/29 04:36:04;;;;;;;11.75;10.50;;;;;;;17.57;54.44;101078.16;4920314;29;20055;-79
2022/11/29 04:39:13;;;;;;;10.88;9.77;;;;;;;17.57;54.60;101077.31;4920401;29;20400;-78
2022/11/29 04:41:58;;;;;;;12.18;10.45;;;;;;;17.55;54.51;101080.97;4842765;29;20057;-79
2022/11/29 04:44:34;;;;;;;12.13;10.80;;;;;;;17.56;54.52;101084.50;4843023;29;20413;-79
2022/11/29 04:47:36;;;;;;;11.90;10.63;;;;;;;17.55;54.59;101080.97;4842149;29;20057;-79
2022/11/29 04:50:19;;;;;;;12.00;10.40;;;;;;;17.55;54.67;101085.47;4843243;29;20406;-78
2022/11/29 04:53:08;;;;;;;12.52;11.18;;;;;;;17.56;54.82;101081.81;4843002;29;20057;-79
2022/11/29 04:55:57;;;;;;;11.25;10.02;;;;;;;17.55;54.69;101083.63;4842909;29;20643;-79
2022/11/29 04:58:37;;;;;;;13.30;10.52;;;;;;;17.55;54.67;101082.78;4843478;29;20065;-78
2022/11/29 05:01:39;;;;;;;11.48;10.27;;;;;;;17.55;54.69;101085.47;4842937;29;20163;-78
2022/11/29 05:04:17;;;;;;;12.43;11.13;;;;;;;17.55;54.75;101082.78;4770643;30;20071;-78
2022/11/29 05:06:47;;;;;;;13.60;10.38;;;;;;;17.54;54.79;101081.94;4770659;30;20449;-80
2022/11/29 05:09:29;;;;;;;12.07;10.52;;;;;;;17.54;54.77;101083.75;4769543;30;20060;-78
2022/11/29 05:12:07;;;;;;;11.93;10.20;;;;;;;17.54;54.70;101078.38;4770613;30;20055;-80
2022/11/29 05:14:54;;;;;;;12.82;11.18;;;;;;;17.54;54.75;101086.41;4770535;30;20064;-80
2022/11/29 05:17:37;;;;;;;13.68;10.38;;;;;;;17.53;54.65;101090.91;4842561;29;20506;-80
2022/11/29 05:20:31;;;;;;;12.43;11.00;;;;;;;17.54;54.59;101091.75;4841771;29;20234;-80
2022/11/29 05:23:16;;;;;;;12.60;10.45;;;;;;;17.54;54.52;101089.09;4842381;29;20058;-80
2022/11/29 05:26:00;;;;;;;11.80;10.32;;;;;;;17.52;54.66;101083.88;4842016;29;20061;-80
2022/11/29 05:28:46;;;;;;;;;;;;;;;17.53;54.67;101087.38;4842719;29;20068;-80
2022/11/29 05:31:19;;;;;;;11.95;10.68;;;;;;;17.52;54.45;101089.22;4842556;29;19924;-80
2022/11/29 05:33:52;;;;;;;13.10;10.60;;;;;;;17.53;54.54;101095.41;4842699;29;20407;-80
2022/11/29 05:36:19;;;;;;;;;;;;;;;17.52;54.61;101096.41;4842923;29;20070;-79
2022/11/29 05:38:55;;;;;;;11.10;9.95;;;;;;;17.52;54.55;101096.41;4842173;29;20416;-79
2022/11/29 05:41:28;;;;;;;12.02;10.18;;;;;;;17.51;54.48;101097.38;4894625;29;20067;-79
2022/11/29 05:43:58;;;;;;;;;;;;;;;17.50;54.49;101101.88;4918768;29;20412;-79
2022/11/29 05:46:29;;;;;;;11.10;10.00;;;;;;;17.51;54.64;101110.75;4918221;29;19946;-78
2022/11/29 05:49:34;;;;;;;13.32;11.73;;;;;;;17.50;54.57;101103.66;4919048;29;20056;-79
2022/11/29 05:52:23;;;;;;;11.32;10.02;;;;;;;17.50;54.42;101109.03;4918409;29;20059;-78
2022/11/29 05:55:18;;;;;;;11.75;10.65;;;;;;;17.50;54.58;101104.56;4918967;29;20056;-79
2022/11/29 05:58:00;;;;;;;11.18;9.98;;;;;;;17.51;54.57;101105.41;4918126;29;20055;-79
2022/11/29 06:00:41;;;;;;;13.33;10.97;;;;;;;17.50;54.47;101106.34;4901995;29;20516;-79
2022/11/29 06:03:25;;;;;;;11.68;10.48;;;;;;;17.50;54.46;101101.00;4918551;29;20059;-79
2022/11/29 06:05:55;;;;;;;;;;;;;;;17.49;54.60;101108.16;4918910;29;20056;-79
2022/11/29 06:08:34;;;;;;;13.05;10.00;;;;;;;17.48;54.43;101111.81;4918306;29;19930;-79
2022/11/29 06:11:14;;;;;;;11.02;9.88;;;;;;;17.48;54.59;101103.78;4918354;29;20048;-79
2022/11/29 06:14:08;;;;;;;10.90;9.52;;;;;;;17.48;54.50;101105.63;4918244;29;20048;-79
2022/11/29 06:16:55;;;;;;;11.85;10.65;;;;;;;17.48;54.51;101108.28;4901812;29;20056;-79
2022/11/29 06:19:52;;;;;;;12.38;11.07;;;;;;;17.48;54.46;101102.94;4918306;29;20052;-78
2022/11/29 06:22:56;;;;;;;11.93;10.25;;;;;;;17.48;54.50;101100.25;4918135;29;20044;-78
2022/11/29 06:26:28;;;;;;;11.32;10.10;;;;;;;17.48;54.63;101101.13;4917674;29;20056;-78
2022/11/29 06:29:13;;;;;;;12.20;9.80;;;;;;;17.46;54.56;101100.38;4840606;29;20058;-78
2022/11/29 06:31:45;;;;;;;12.20;10.32;;;;;;;17.47;54.53;101098.56;4836283;29;20065;-78
2022/11/29 06:34:21;;;;;;;11.80;9.90;;;;;;;17.46;54.53;101097.72;4841300;29;20081;-79
2022/11/29 06:37:11;;;;;;;11.70;9.73;;;;;;;17.45;54.64;101101.34;4841093;29;20054;-79
2022/11/29 06:39:40;;;;;;;11.30;10.07;;;;;;;17.47;54.62;101103.91;4835847;29;20054;-79
2022/11/29 06:42:07;;;;;;;11.50;10.30;;;;;;;17.46;54.48;101107.53;4840808;29;20542;-80
2022/11/29 06:44:35;;;;;;;13.55;10.57;;;;;;;17.45;54.43;101111.19;4841459;29;20062;-79
2022/11/29 06:47:15;;;;;;;12.30;10.40;;;;;;;17.46;54.46;101112.91;4841290;29;20062;-79
2022/11/29 06:49:57;;;;;;;12.43;11.00;;;;;;;17.46;54.45;101115.56;4841133;29;20061;-79
2022/11/29 06:52:34;;;;;;;11.65;10.23;;;;;;;17.46;54.50;101115.56;4833868;29;20077;-79
2022/11/29 06:55:37;;;;;;;14.20;10.70;;;;;;;17.44;54.28;101118.38;4841586;29;20464;-79
2022/11/29 06:58:32;;;;;;;11.20;9.75;;;;;;;17.46;54.41;101123.59;4822694;29;20077;-79
2022/11/29 07:01:23;;;;;;;12.07;10.55;;;;;;;17.45;54.47;101117.41;4875722;29;20438;-79
2022/11/29 07:03:54;;;;;;;12.40;10.27;;;;;;;17.45;54.37;101121.91;4878316;29;20057;-79
2022/11/29 07:06:25;;;;;;;10.88;9.77;;;;;;;17.45;54.31;101129.94;4878124;29;20057;-79
2022/11/29 07:09:00;;;;;;;11.02;9.93;;;;;;;17.44;54.33;101121.03;4878169;29;20544;-79
2022/11/29 07:11:27;;;;;;;12.88;10.00;;;;;;;17.44;54.28;101120.19;4881850;29;20060;-78
2022/11/29 07:13:55;;;;;;;10.73;9.55;;;;;;;17.43;54.33;101130.06;4881619;29;20460;-79
2022/11/29 07:16:30;;;;;;;11.38;10.15;;;;;;;17.44;54.48;101130.91;4881896;29;20071;-80
2022/11/29 07:19:21;;;;;;;11.02;9.93;;;;;;;17.43;54.37;101127.38;4881862;29;20052;-79
2022/11/29 07:21:57;;;;;;;10.80;9.70;;;;;;;17.44;54.35;101133.56;4855994;29;20061;-79
2022/11/29 07:24:27;;;;;;;10.80;9.50;;;;;;;17.43;54.29;101132.72;4881890;29;20053;-79
2022/11/29 07:27:05;;;;;;;10.85;9.70;;;;;;;17.43;54.38;101129.19;4881204;29;20462;-80
2022/11/29 07:29:41;;;;;;;11.50;9.85;;;;;;;17.42;54.42;101123.00;4866950;29;20064;-80
2022/11/29 07:32:26;;;;;;;10.73;9.70;;;;;;;17.43;54.30;101134.56;4881981;29;20481;-79
2022/11/29 07:35:29;;;;;;;10.60;9.50;;;;;;;17.42;54.33;101128.34;4905400;29;20508;-80
2022/11/29 07:38:25;;;;;;;10.85;9.80;;;;;;;17.42;54.40;101144.41;4921133;29;20044;-80
2022/11/29 07:41:28;;;;;;;10.50;9.40;;;;;;;17.41;54.26;101139.16;4863481;29;20747;-79
2022/11/29 07:44:17;;;;;;;10.48;9.38;;;;;;;17.40;54.23;101140.13;4771701;30;20489;-78
2022/11/29 07:46:44;;;;;;;12.40;9.63;;;;;;;17.41;54.21;101137.31;4774217;30;20052;-79
2022/11/29 07:49:11;;;;;;;10.25;9.07;;;;;;;17.40;54.36;101138.28;4771903;30;20090;-79
2022/11/29 07:51:39;;;;;;;10.43;9.27;;;;;;;17.40;54.26;101135.63;4773168;30;20072;-78
2022/11/29 07:54:06;;;;;;;9.75;8.70;;;;;;;17.40;54.24;101137.44;4772955;30;20068;-79
2022/11/29 07:56:33;;;;;;;10.57;9.45;;;;;;;17.41;54.27;101141.81;4773875;30;20068;-80
2022/11/29 07:59:01;;;;;;;10.65;8.80;;;;;;;17.40;54.26;101140.13;4772333;30;20083;-79
2022/11/29 08:01:30;;;;;;;9.85;8.85;;;;;;;17.40;54.32;101140.97;4772416;30;20109;-79
2022/11/29 08:03:57;;;;;;;10.85;9.15;;;;;;;17.40;54.36;101148.16;4771958;30;20417;-82
2022/11/29 08:06:25;;;;;;;11.45;9.55;;;;;;;17.40;54.56;101138.28;4773494;30;20063;-81
2022/11/29 08:08:52;;;;;;;10.98;9.68;;;;;;;17.42;54.75;101144.41;4772922;30;20063;-82
2022/11/29 08:11:19;;;;;;;11.65;9.68;;;;;;;17.42;54.69;101146.19;4773069;30;20067;-81
2022/11/29 08:13:47;;;;;;;10.25;9.13;;;;;;;17.42;54.53;101155.13;4772846;30;20064;-82
2022/11/29 08:16:16;;;;;;;9.90;8.90;;;;;;;17.41;54.38;101144.50;4773208;30;20100;-81
2022/11/29 08:18:43;;;;;;;12.45;9.13;;;;;;;17.41;54.38;101142.66;4819566;29;20058;-82
2022/11/29 08:21:16;;;;;;;10.38;9.32;;;;;;;17.42;54.55;101152.44;4891173;29;20420;-83
2022/11/29 08:23:48;;;;;;;9.38;8.48;;;;;;;17.43;54.81;101150.63;4904768;29;20420;-82
2022/11/29 08:26:17;;;;;;;11.57;9.60;;;;;;;17.43;54.83;101150.63;4921678;29;20408;-80
2022/11/29 08:28:44;;;;;;;14.23;9.93;;;;;;;17.44;55.11;101155.84;4920653;29;20052;-79
2022/11/29 08:31:12;;;;;;;11.85;9.32;;;;;;;17.45;54.99;101154.88;4921943;29;20048;-80
2022/11/29 08:33:42;;;;;;;12.13;9.05;;;;;;;17.45;55.20;101156.69;4921781;29;20063;-82
2022/11/29 08:36:14;;;;;;;11.80;9.05;;;;;;;17.46;55.39;101145.91;4921485;29;20067;-85
2022/11/29 08:38:41;;;;;;;9.38;8.45;;;;;;;17.46;55.72;101153.91;4921479;29;20048;-79
2022/11/29 08:41:11;;;;;;;10.52;8.63;;;;;;;17.48;55.87;101161.81;4921278;29;20408;-87
2022/11/29 08:43:39;;;;;;;14.02;10.65;;;;;;;17.47;55.38;101152.09;4921383;29;20056;-84
2022/11/29 08:46:07;;;;;;;15.40;11.15;;;;;;;17.47;53.83;101152.09;4921654;29;20070;-80
2022/11/29 08:48:41;;;;;;;14.43;12.60;;;;;;;17.47;52.97;101160.13;4921265;29;20052;-79
2022/11/29 08:51:08;;;;;;;14.30;12.80;;;;;;;17.47;52.79;101163.66;4921263;29;20105;-84
2022/11/29 08:53:42;;;;;;;13.55;10.85;;;;;;;17.48;54.22;101160.00;4920696;29;20052;-82
2022/11/29 08:56:12;;;;;;;10.63;9.52;;;;;;;17.49;54.94;101156.34;4921248;29;20066;-81
2022/11/29 08:59:00;;;;;;;14.15;9.85;;;;;;;17.49;55.05;101161.72;4921354;29;20055;-83
2022/11/29 09:01:28;;;;;;;11.38;9.57;;;;;;;17.50;55.40;101162.56;4904227;29;20052;-82
2022/11/29 09:03:58;;;;;;;12.13;9.70;;;;;;;17.51;55.37;101166.97;4904146;29;20067;-81
2022/11/29 09:06:36;;;;;;;11.88;9.90;;;;;;;17.50;55.57;101163.44;4920531;29;20052;-81
2022/11/29 09:09:04;;;;;;;13.07;10.38;;;;;;;17.50;55.71;101171.47;4919989;29;20044;-85
2022/11/29 09:11:34;;;;;;;11.57;9.43;;;;;;;17.51;55.69;101173.16;4904162;29;20070;-84
2022/11/29 09:14:04;;;;;;;11.18;10.07;;;;;;;17.50;55.40;101176.81;4920072;29;20056;-82
2022/11/29 09:16:34;;;;;;;12.30;10.32;;;;;;;17.51;55.71;101180.34;4902479;29;20500;-84
2022/11/29 09:19:04;;;;;;;11.43;9.30;;;;;;;17.51;55.79;101180.34;4903716;29;20048;-83
2022/11/29 09:21:33;;;;;;;14.30;10.88;;;;;;;17.52;55.81;101182.06;4902770;29;20064;-80
2022/11/29 09:24:05;;;;;;;10.48;9.45;;;;;;;17.52;55.78;101187.41;4919887;29;20059;-80
2022/11/29 09:26:34;;;;;;;12.20;10.10;;;;;;;17.52;55.81;101192.75;4920335;29;20055;-82
2022/11/29 09:29:04;;;;;;;11.40;9.52;;;;;;;17.52;55.82;101188.25;4920030;29;20044;-82
2022/11/29 09:31:33;;;;;;;9.95;8.95;;;;;;;17.52;55.81;101188.25;4902798;29;20425;-82
2022/11/29 09:34:01;;;;;;;12.98;9.10;;;;;;;17.54;55.77;101185.47;4918878;29;20044;-82
2022/11/29 09:36:29;;;;;;;9.70;8.70;;;;;;;17.54;55.65;101190.81;4920493;29;20063;-83
2022/11/29 09:38:57;;;;;;;11.90;9.82;;;;;;;17.53;55.43;101184.59;4920110;29;20055;-82
2022/11/29 09:41:54;;;;;;;14.50;9.60;;;;;;;17.54;55.28;101188.13;4918950;29;20416;-80
2022/11/29 09:44:36;;;;;;;12.05;9.55;;;;;;;17.54;55.51;101188.13;4920077;29;20067;-81
2022/11/29 09:47:36;;;;;;;10.50;8.80;;;;;;;17.53;55.65;101179.25;4899330;29;20055;-82
2022/11/29 09:50:27;;;;;;;13.93;9.05;;;;;;;17.54;55.37;101194.38;4900431;29;20055;-84
2022/11/29 09:53:13;;;;;;;12.20;9.90;;;;;;;17.54;55.53;101188.13;4901075;29;20477;-85
2022/11/29 09:56:22;;;;;;;11.73;8.90;;;;;;;17.55;55.51;101192.53;4904655;29;20113;-84
2022/11/29 09:58:55;;;;;;;14.60;9.73;;;;;;;17.54;55.42;101197.06;4902967;29;20405;-82
2022/11/29 10:01:31;;;;;;;11.80;9.52;;;;;;;17.54;55.54;101186.34;4919286;29;20051;-86
2022/11/29 10:04:07;;;;;;;11.32;9.40;;;;;;;17.54;55.10;101185.47;4901374;29;20416;-84
2022/11/29 10:06:39;;;;;;;14.85;9.57;;;;;;;17.54;55.06;101186.34;4918436;29;20056;-82
2022/11/29 10:09:20;;;;;;;11.70;9.00;;;;;;;17.55;55.26;101182.69;4918563;29;20044;-83
2022/11/29 10:12:06;;;;;;;10.57;9.02;;;;;;;17.54;55.21;101181.00;4919656;29;20488;-83
2022/11/29 10:14:43;;;;;;;11.73;10.45;;;;;;;17.55;55.28;101184.50;4919525;29;20048;-82
2022/11/29 10:17:23;;;;;;;10.52;9.10;;;;;;;17.54;55.26;101175.63;4919409;29;20052;-85
2022/11/29 10:19:58;;;;;;;11.75;8.85;;;;;;;17.55;55.11;101187.19;4919816;29;20377;-83
2022/11/29 10:22:39;;;;;;;14.95;9.90;;;;;;;17.54;53.73;101175.63;4919489;29;20058;-86
2022/11/29 10:25:11;;;;;;;14.13;9.57;;;;;;;17.56;55.77;101183.53;4901916;29;20056;-86
2022/11/29 10:27:39;;;;;;;11.30;9.43;;;;;;;17.54;56.81;101172.06;4918285;29;20051;-82
2022/11/29 10:30:14;;;;;;;11.00;8.73;;;;;;;17.55;57.15;101176.47;4918071;29;20063;-83
2022/11/29 10:32:46;;;;;;;10.45;8.85;;;;;;;17.55;57.40;101171.97;4918609;29;20048;-79
2022/11/29 10:35:16;;;;;;;11.85;8.32;;;;;;;17.55;57.84;101165.78;4916505;29;20063;-82
2022/11/29 10:37:43;;;;;;;13.35;8.93;;;;;;;17.53;56.90;101168.53;4919001;29;20415;-82
2022/11/29 10:40:33;;;;;;;8.98;8.07;;;;;;;17.54;57.32;101169.41;4918783;29;20091;-86
2022/11/29 10:43:01;;;;;;;9.82;8.82;;;;;;;17.54;57.89;101162.25;4900856;29;20059;-85
2022/11/29 10:45:57;;;;;;;9.85;8.75;;;;;;;17.52;56.99;101161.50;4917273;29;20067;-80
2022/11/29 10:48:30;;;;;;;11.75;8.43;;;;;;;17.52;57.45;101164.16;4916947;29;20064;-81
2022/11/29 10:50:58;;;;;;;;;;;;;;;17.52;56.80;101160.63;4918678;29;20056;-81
2022/11/29 10:53:47;;;;;;;20.67;14.98;;;;;;;17.47;52.07;101157.44;4917973;29;19923;-80
2022/11/29 10:56:23;;;;;;;19.88;17.77;;;;;;;17.38;50.09;101150.06;4918652;29;20044;-85
2022/11/29 10:59:02;;;;;;;16.67;15.07;;;;;;;17.34;51.47;101148.56;4885352;29;20521;-81
2022/11/29 11:01:41;;;;;;;15.50;13.52;;;;;;;17.34;53.00;101149.47;4918000;29;20052;-80
2022/11/29 11:04:31;;;;;;;13.60;11.43;;;;;;;17.35;55.46;101145.81;4917572;29;20048;-81
2022/11/29 11:07:01;;;;;;;15.07;11.90;;;;;;;17.37;55.89;101146.53;4917880;29;20055;-81
2022/11/29 11:09:35;;;;;;;12.63;11.23;;;;;;;17.39;56.07;101144.63;4915755;29;20052;-80
2022/11/29 11:12:17;;;;;;;15.65;11.68;;;;;;;17.40;55.64;101145.47;4917770;29;20052;-81
2022/11/29 11:14:46;;;;;;;17.47;12.03;;;;;;;17.41;56.87;101147.19;4918006;29;20052;-81
2022/11/29 11:17:31;;;;;;;14.50;10.63;;;;;;;17.43;56.18;101145.25;4900236;29;20294;-78
2022/11/29 11:20:05;;;;;;;12.55;10.40;;;;;;;17.45;56.84;101148.66;4917838;29;20055;-80
2022/11/29 11:22:33;;;;;;;13.02;9.43;;;;;;;17.45;57.52;101149.50;4917547;29;20045;-80
2022/11/29 11:25:09;;;;;;;11.35;10.15;;;;;;;17.46;57.69;101147.69;4917639;29;20511;-86
2022/11/29 11:27:41;;;;;;;12.27;9.88;;;;;;;17.48;57.52;101151.97;4900981;29;20060;-81
2022/11/29 11:30:21;;;;;;;11.40;9.00;;;;;;;17.48;57.80;101143.09;4917887;29;20088;-82
2022/11/29 11:33:15;;;;;;;10.45;9.35;;;;;;;17.47;57.83;101144.06;4902088;29;20055;-84
2022/11/29 11:35:42;;;;;;;9.85;8.82;;;;;;;17.48;57.58;101151.13;4914124;29;20469;-80
2022/11/29 11:38:15;;;;;;;13.82;9.40;;;;;;;17.48;57.86;101151.13;4917233;29;20051;-81
2022/11/29 11:40:43;;;;;;;9.43;8.38;;;;;;;17.49;58.02;101150.16;4900459;29;20441;-79
2022/11/29 11:43:20;;;;;;;11.32;8.70;;;;;;;17.50;58.08;101147.38;4900078;29;20059;-80
2022/11/29 11:45:52;;;;;;;10.45;8.48;;;;;;;17.51;58.09;101150.91;4897910;29;20063;-80
2022/11/29 11:48:20;;;;;;;9.85;8.88;;;;;;;17.51;58.16;101148.22;4917073;29;20059;-81
2022/11/29 11:50:55;;;;;;;11.45;9.25;;;;;;;17.51;57.88;101149.06;4917305;29;20049;-81
2022/11/29 11:53:27;;;;;;;11.55;8.75;;;;;;;17.51;58.13;101148.22;4917925;29;20052;-80
2022/11/29 11:56:06;;;;;;;9.98;8.30;;;;;;;17.52;57.69;101150.78;4919246;29;20040;-83
2022/11/29 11:58:38;;;;;;;10.02;8.82;;;;;;;17.52;57.88;101149.94;4921390;29;20048;-81
2022/11/29 12:01:11;;;;;;;11.55;8.40;;;;;;;17.52;57.97;101150.78;4921249;29;20056;-79
2022/11/29 12:03:50;;;;;;;8.57;7.68;;;;;;;17.52;57.55;101155.28;4920533;29;20044;-78
2022/11/29 12:06:26;;;;;;;9.52;8.63;;;;;;;17.53;57.83;101156.97;4921314;29;20052;-82
2022/11/29 12:09:00;;;;;;;10.60;8.35;;;;;;;17.53;58.06;101148.94;4901037;29;20055;-80
2022/11/29 12:11:36;;;;;;;9.88;8.25;;;;;;;17.55;58.08;101147.03;4902182;29;20048;-81